createdAt,value
2019-05-26T00:01:40.679Z,3.73
2019-05-26T00:04:45.210Z,4.70
2019-05-26T00:07:49.814Z,3.63
2019-05-26T00:10:54.400Z,3.73
2019-05-26T00:13:58.963Z,3.83
2019-05-26T00:17:03.453Z,3.53
2019-05-26T00:20:09.142Z,4.53
2019-05-26T00:23:13.738Z,4.30
2019-05-26T00:26:18.339Z,4.20
2019-05-26T00:29:22.803Z,3.83
2019-05-26T00:32:27.427Z,4.23
2019-05-26T00:35:32.057Z,3.43
2019-05-26T00:38:36.646Z,4.57
2019-05-26T00:41:41.172Z,4.63
2019-05-26T00:44:45.690Z,3.23
2019-05-26T00:47:50.341Z,3.70
2019-05-26T00:50:54.938Z,4.27
2019-05-26T00:53:59.552Z,4.07
2019-05-26T00:57:04.142Z,4.03
2019-05-26T01:00:10.355Z,3.30
2019-05-26T01:03:14.973Z,3.40
2019-05-26T01:06:19.549Z,2.83
2019-05-26T01:09:24.114Z,3.93
2019-05-26T01:12:28.672Z,3.30
2019-05-26T01:15:33.382Z,3.57
2019-05-26T01:18:37.958Z,3.70
2019-05-26T01:21:42.515Z,3.37
2019-05-26T01:24:47.028Z,3.40
2019-05-26T01:27:51.637Z,3.70
2019-05-26T01:30:56.250Z,3.70
2019-05-26T01:34:00.742Z,3.70
2019-05-26T01:37:05.961Z,4.30
2019-05-26T01:40:10.629Z,3.73
2019-05-26T01:43:15.213Z,3.50
2019-05-26T01:46:19.788Z,3.97
2019-05-26T01:49:24.393Z,3.67
2019-05-26T01:52:28.948Z,3.90
2019-05-26T01:55:33.525Z,3.33
2019-05-26T01:58:38.147Z,3.90
2019-05-26T02:01:42.649Z,3.10
2019-05-26T02:04:47.226Z,3.87
2019-05-26T02:07:51.803Z,3.77
2019-05-26T02:10:56.320Z,3.40
2019-05-26T02:14:00.915Z,3.33
2019-05-26T02:17:05.713Z,3.77
2019-05-26T02:20:10.513Z,3.90
2019-05-26T02:23:15.109Z,3.87
2019-05-26T02:26:19.698Z,4.40
2019-05-26T02:29:24.270Z,3.20
2019-05-26T02:32:29.041Z,3.57
2019-05-26T02:35:33.630Z,3.57
2019-05-26T02:38:57.090Z,3.80
2019-05-26T02:41:44.361Z,3.00
2019-05-26T02:44:49.010Z,2.70
2019-05-26T02:47:53.577Z,3.67
2019-05-26T02:50:58.022Z,2.57
2019-05-26T02:54:02.607Z,3.20
2019-05-26T02:57:07.253Z,3.13
2019-05-26T03:00:14.074Z,2.60
2019-05-26T03:03:18.592Z,2.50
2019-05-26T03:06:24.286Z,2.63
2019-05-26T03:09:31.047Z,2.60
2019-05-26T03:12:37.047Z,3.27
2019-05-26T03:15:43.246Z,2.40
2019-05-26T03:18:50.246Z,2.73
2019-05-26T03:21:56.919Z,2.30
2019-05-26T03:25:02.087Z,2.57
2019-05-26T03:28:06.776Z,2.83
2019-05-26T03:31:11.360Z,2.00
2019-05-26T03:34:16.044Z,2.07
2019-05-26T03:37:20.553Z,2.33
2019-05-26T03:40:25.064Z,3.00
2019-05-26T03:43:29.698Z,4.10
2019-05-26T03:46:34.309Z,3.10
2019-05-26T03:49:38.863Z,3.43
2019-05-26T03:52:43.386Z,3.30
2019-05-26T03:55:47.975Z,3.10
2019-05-26T03:58:52.666Z,2.70
2019-05-26T04:01:57.876Z,2.60
2019-05-26T04:05:02.623Z,2.67
2019-05-26T04:08:07.149Z,2.83
2019-05-26T04:11:11.788Z,3.00
2019-05-26T04:14:16.384Z,2.97
2019-05-26T04:17:20.936Z,3.37
2019-05-26T04:20:25.568Z,3.40
2019-05-26T04:23:30.146Z,3.63
2019-05-26T04:26:34.723Z,3.40
2019-05-26T04:29:39.269Z,3.93
2019-05-26T04:32:43.909Z,5.03
2019-05-26T04:35:49.757Z,4.60
2019-05-26T04:38:54.321Z,4.77
2019-05-26T04:41:58.905Z,5.67
2019-05-26T04:45:03.506Z,4.47
2019-05-26T04:48:08.191Z,3.77
2019-05-26T04:51:12.766Z,4.10
2019-05-26T04:54:17.358Z,5.40
2019-05-26T04:57:21.923Z,5.67
2019-05-26T05:00:26.548Z,6.10
2019-05-26T05:03:31.076Z,6.47
2019-05-26T05:06:35.654Z,6.80
2019-05-26T05:09:40.279Z,7.40
2019-05-26T05:12:44.880Z,7.77
2019-05-26T05:15:49.457Z,7.20
2019-05-26T05:18:54.047Z,8.80
2019-05-26T05:21:58.665Z,8.77
2019-05-26T05:25:03.251Z,8.43
2019-05-26T05:28:07.814Z,9.40
2019-05-26T05:31:12.377Z,11.43
2019-05-26T05:34:16.999Z,9.67
2019-05-26T05:37:25.072Z,8.93
2019-05-26T05:40:27.746Z,8.70
2019-05-26T05:43:32.266Z,8.93
2019-05-26T05:46:36.841Z,8.57
2019-05-26T05:49:41.397Z,8.77
2019-05-26T05:52:45.994Z,8.37
2019-05-26T05:55:50.544Z,8.87
2019-05-26T05:58:55.152Z,9.87
2019-05-26T06:02:00.021Z,8.90
2019-05-26T06:05:05.062Z,9.07
2019-05-26T06:08:09.610Z,8.00
2019-05-26T06:11:16.907Z,7.40
2019-05-26T06:14:20.539Z,8.40
2019-05-26T06:17:25.122Z,8.50
2019-05-26T06:20:29.701Z,7.80
2019-05-26T06:23:36.773Z,7.90
2019-05-26T06:26:40.665Z,7.50
2019-05-26T06:29:58.314Z,7.80
2019-05-26T06:32:51.675Z,6.90
2019-05-26T06:35:56.197Z,7.10
2019-05-26T06:39:00.838Z,7.13
2019-05-26T06:42:05.423Z,6.93
2019-05-26T06:45:10.678Z,7.33
2019-05-26T06:48:15.209Z,8.40
2019-05-26T06:51:19.782Z,7.50
2019-05-26T06:54:24.365Z,7.10
2019-05-26T06:57:28.895Z,6.73
2019-05-26T07:00:33.465Z,7.77
2019-05-26T07:03:38.083Z,7.77
2019-05-26T07:06:42.656Z,7.80
2019-05-26T07:09:47.182Z,7.33
2019-05-26T07:12:51.790Z,7.43
2019-05-26T07:15:57.178Z,7.03
2019-05-26T07:19:02.174Z,6.80
2019-05-26T07:22:09.994Z,7.37
2019-05-26T07:25:14.846Z,7.10
2019-05-26T07:28:19.780Z,7.00
2019-05-26T07:31:28.056Z,6.60
2019-05-26T07:34:32.856Z,6.60
2019-05-26T07:37:37.794Z,7.23
2019-05-26T07:40:42.798Z,6.77
2019-05-26T07:43:47.745Z,6.57
2019-05-26T07:46:52.280Z,6.50
2019-05-26T07:49:59.079Z,6.23
2019-05-26T07:53:04.094Z,5.97
2019-05-26T07:56:08.664Z,5.67
2019-05-26T07:59:13.173Z,5.50
2019-05-26T08:02:18.329Z,5.53
2019-05-26T08:05:22.933Z,5.20
2019-05-26T08:08:27.836Z,5.20
2019-05-26T08:11:32.762Z,4.90
2019-05-26T08:14:38.728Z,4.40
2019-05-26T08:17:43.815Z,4.63
2019-05-26T08:20:49.224Z,4.53
2019-05-26T08:23:54.106Z,4.90
2019-05-26T08:26:58.730Z,4.67
2019-05-26T08:30:04.407Z,4.57
2019-05-26T08:33:08.987Z,4.20
2019-05-26T08:36:13.522Z,3.57
2019-05-26T08:39:18.473Z,3.63
2019-05-26T08:42:27.362Z,4.23
2019-05-26T08:45:29.841Z,3.23
2019-05-26T08:48:35.099Z,3.27
2019-05-26T08:51:39.644Z,2.93
2019-05-26T08:54:44.231Z,2.80
2019-05-26T08:57:49.175Z,3.03
2019-05-26T09:00:54.204Z,3.30
2019-05-26T09:03:59.523Z,3.17
2019-05-26T09:07:04.306Z,3.43
2019-05-26T09:10:09.083Z,2.57
2019-05-26T09:13:14.289Z,2.90
2019-05-26T09:16:18.874Z,2.60
2019-05-26T09:19:23.879Z,2.60
2019-05-26T09:22:28.704Z,2.90
2019-05-26T09:25:33.317Z,2.93
2019-05-26T09:28:38.234Z,3.30
2019-05-26T09:31:42.953Z,3.00
2019-05-26T09:34:47.525Z,2.63
2019-05-26T09:37:52.133Z,2.70
2019-05-26T09:40:56.712Z,2.60
2019-05-26T09:44:01.657Z,2.77
2019-05-26T09:47:06.272Z,3.27
2019-05-26T09:50:11.373Z,3.53
2019-05-26T09:53:16.011Z,2.90
2019-05-26T09:56:20.634Z,4.13
2019-05-26T09:59:25.211Z,2.53
2019-05-26T10:02:31.447Z,2.53
2019-05-26T10:05:36.112Z,2.43
2019-05-26T10:08:40.739Z,2.30
2019-05-26T10:11:45.346Z,2.40
2019-05-26T10:14:49.920Z,2.33
2019-05-26T10:17:55.824Z,2.37
2019-05-26T10:21:00.433Z,2.60
2019-05-26T10:24:05.040Z,2.87
2019-05-26T10:27:09.623Z,2.73
2019-05-26T10:30:14.939Z,2.40
2019-05-26T10:33:20.509Z,2.60
2019-05-26T10:36:25.033Z,2.30
2019-05-26T10:39:29.649Z,2.37
2019-05-26T10:42:34.257Z,2.30
2019-05-26T10:45:38.816Z,3.70
2019-05-26T10:48:43.447Z,2.30
2019-05-26T10:51:48.009Z,2.80
2019-05-26T10:54:52.625Z,2.90
2019-05-26T10:57:57.229Z,2.63
2019-05-26T11:01:01.900Z,2.13
2019-05-26T11:04:06.565Z,2.10
2019-05-26T11:07:11.080Z,2.63
2019-05-26T11:10:15.894Z,2.47
2019-05-26T11:13:20.466Z,2.60
2019-05-26T11:16:25.009Z,2.40
2019-05-26T11:19:29.573Z,1.97
2019-05-26T11:22:34.201Z,3.33
2019-05-26T11:25:38.825Z,2.40
2019-05-26T11:28:43.355Z,2.43
2019-05-26T11:31:47.992Z,2.00
2019-05-26T11:35:01.116Z,2.50
2019-05-26T11:37:58.968Z,2.67
2019-05-26T11:41:03.554Z,2.10
2019-05-26T11:44:18.054Z,2.43
2019-05-26T11:47:16.874Z,2.10
2019-05-26T11:50:22.772Z,1.50
2019-05-26T11:53:27.332Z,2.13
2019-05-26T11:56:31.910Z,1.70
2019-05-26T11:59:36.540Z,2.20
2019-05-26T12:02:41.141Z,2.30
2019-05-26T12:05:45.993Z,2.57
2019-05-26T12:08:50.508Z,3.83
2019-05-26T12:11:55.121Z,2.27
2019-05-26T12:15:00.153Z,1.70
2019-05-26T12:18:04.804Z,1.30
2019-05-26T12:21:10.556Z,1.43
2019-05-26T12:24:15.203Z,1.93
2019-05-26T12:27:19.795Z,1.60
2019-05-26T12:30:24.455Z,1.67
2019-05-26T12:33:32.097Z,1.70
2019-05-26T12:36:39.196Z,5.97
2019-05-26T12:39:42.998Z,1.97
2019-05-26T12:42:47.617Z,1.70
2019-05-26T12:45:52.193Z,1.40
2019-05-26T12:48:56.772Z,1.10
2019-05-26T12:52:01.709Z,1.50
2019-05-26T12:55:09.326Z,1.40
2019-05-26T12:58:14.152Z,1.70
2019-05-26T13:01:18.739Z,1.53
2019-05-26T13:04:26.260Z,1.20
2019-05-26T13:07:30.957Z,1.33
2019-05-26T13:10:38.577Z,1.40
2019-05-26T13:13:44.612Z,1.70
2019-05-26T13:16:49.194Z,2.60
2019-05-26T13:19:53.782Z,1.70
2019-05-26T13:22:58.396Z,1.00
2019-05-26T13:26:03.028Z,1.90
2019-05-26T13:29:07.528Z,2.13
2019-05-26T13:32:12.182Z,1.40
2019-05-26T13:35:17.160Z,2.60
2019-05-26T13:38:22.664Z,1.13
2019-05-26T13:41:27.642Z,1.60
2019-05-26T13:44:32.236Z,1.30
2019-05-26T13:47:36.928Z,1.77
2019-05-26T13:50:41.450Z,2.13
2019-05-26T13:53:46.072Z,1.37
2019-05-26T13:56:50.617Z,1.60
2019-05-26T13:59:55.209Z,1.20
2019-05-26T14:02:59.777Z,1.40
2019-05-26T14:06:04.447Z,1.30
2019-05-26T14:09:10.739Z,1.40
2019-05-26T14:12:15.276Z,1.60
2019-05-26T14:15:20.263Z,1.93
2019-05-26T14:18:26.040Z,1.10
2019-05-26T14:21:31.953Z,1.93
2019-05-26T14:24:50.880Z,2.40
2019-05-26T14:27:43.704Z,1.70
2019-05-26T14:30:48.272Z,1.40
2019-05-26T14:33:52.878Z,1.53
2019-05-26T14:36:57.361Z,1.30
2019-05-26T14:40:02.429Z,1.40
2019-05-26T14:43:07.121Z,1.40
2019-05-26T14:46:11.696Z,1.37
2019-05-26T14:49:16.206Z,1.40
2019-05-26T14:52:20.831Z,1.57
2019-05-26T14:55:25.419Z,1.70
2019-05-26T14:58:30.001Z,1.43
2019-05-26T15:01:34.514Z,1.70
2019-05-26T15:04:39.118Z,2.07
2019-05-26T15:07:43.693Z,1.40
2019-05-26T15:10:48.283Z,1.30
2019-05-26T15:13:52.802Z,1.43
2019-05-26T15:16:57.406Z,1.20
2019-05-26T15:20:02.025Z,1.37
2019-05-26T15:23:06.619Z,1.70
2019-05-26T15:26:11.154Z,1.60
2019-05-26T15:29:15.825Z,1.30
2019-05-26T15:32:20.523Z,2.37
2019-05-26T15:35:25.159Z,1.40
2019-05-26T15:38:41.885Z,1.30
2019-05-26T15:41:36.243Z,1.33
2019-05-26T15:44:40.861Z,1.40
2019-05-26T15:47:45.332Z,1.30
2019-05-26T15:50:50.203Z,1.23
2019-05-26T15:53:54.741Z,1.20
2019-05-26T15:56:59.364Z,1.80
2019-05-26T16:00:04.042Z,1.20
2019-05-26T16:03:09.067Z,1.17
2019-05-26T16:06:13.645Z,1.50
2019-05-26T16:09:19.234Z,1.10
2019-05-26T16:12:24.126Z,1.27
2019-05-26T16:15:29.608Z,1.03
2019-05-26T16:18:34.073Z,1.20
2019-05-26T16:21:39.033Z,1.07
2019-05-26T16:24:43.559Z,1.83
2019-05-26T16:27:48.564Z,2.07
2019-05-26T16:30:53.628Z,2.80
2019-05-26T16:33:58.430Z,1.43
2019-05-26T16:37:22.353Z,3.83
2019-05-26T16:40:27.718Z,1.23
2019-05-26T16:43:32.563Z,1.40
2019-05-26T16:46:37.575Z,1.10
2019-05-26T16:49:42.133Z,2.10
2019-05-26T16:52:47.024Z,1.20
2019-05-26T16:55:51.628Z,1.60
2019-05-26T16:58:59.049Z,1.87
2019-05-26T17:02:03.788Z,1.33
2019-05-26T17:05:08.832Z,1.13
2019-05-26T17:08:13.402Z,1.13
2019-05-26T17:11:18.440Z,1.10
2019-05-26T17:14:22.979Z,1.90
2019-05-26T17:17:27.551Z,1.77
2019-05-26T17:20:32.151Z,1.10
2019-05-26T17:23:36.960Z,1.90
2019-05-26T17:26:41.554Z,0.87
2019-05-26T17:29:46.242Z,0.80
2019-05-26T17:32:50.909Z,1.07
2019-05-26T17:35:55.485Z,0.87
2019-05-26T17:39:00.093Z,0.87
2019-05-26T17:42:04.647Z,1.20
2019-05-26T17:45:09.509Z,1.20
2019-05-26T17:48:14.104Z,1.10
2019-05-26T17:51:19.854Z,1.00
2019-05-26T17:54:24.380Z,1.20
2019-05-26T17:57:28.942Z,1.63
2019-05-26T18:00:34.430Z,1.00
2019-05-26T18:03:39.060Z,1.20
2019-05-26T18:06:43.537Z,1.60
2019-05-26T18:09:48.155Z,1.17
2019-05-26T18:12:52.718Z,1.13
2019-05-26T18:15:57.226Z,0.90
2019-05-26T18:19:01.745Z,1.13
2019-05-26T18:22:06.433Z,1.30
2019-05-26T18:25:11.143Z,1.00
2019-05-26T18:28:15.819Z,1.27
2019-05-26T18:31:20.331Z,1.13
2019-05-26T18:34:24.980Z,1.10
2019-05-26T18:37:51.974Z,1.23
2019-05-26T18:40:54.875Z,1.47
2019-05-26T18:43:59.409Z,1.20
2019-05-26T18:47:04.086Z,1.20
2019-05-26T18:50:08.895Z,1.50
2019-05-26T18:53:13.482Z,1.27
2019-05-26T18:56:18.267Z,1.23
2019-05-26T18:59:22.798Z,1.20
2019-05-26T19:02:27.486Z,1.33
2019-05-26T19:05:34.616Z,1.73
2019-05-26T19:08:38.674Z,1.63
2019-05-26T19:11:43.231Z,1.30
2019-05-26T19:14:47.842Z,1.20
2019-05-26T19:17:52.412Z,1.10
2019-05-26T19:20:57.085Z,1.63
2019-05-26T19:24:01.631Z,1.00
2019-05-26T19:27:06.371Z,1.57
2019-05-26T19:30:13.226Z,1.60
2019-05-26T19:33:19.678Z,1.83
2019-05-26T19:36:25.553Z,1.03
2019-05-26T19:39:30.820Z,1.03
2019-05-26T19:42:35.871Z,1.10
2019-05-26T19:45:40.475Z,1.20
2019-05-26T19:48:46.180Z,1.20
2019-05-26T19:51:52.403Z,1.20
2019-05-26T19:54:57.637Z,1.20
2019-05-26T19:58:02.517Z,1.20
2019-05-26T20:01:07.035Z,1.73
2019-05-26T20:04:11.685Z,1.80
2019-05-26T20:07:16.224Z,1.83
2019-05-26T20:10:20.928Z,1.40
2019-05-26T20:13:25.566Z,1.73
2019-05-26T20:16:30.987Z,1.53
2019-05-26T20:19:35.682Z,1.27
2019-05-26T20:22:40.279Z,1.20
2019-05-26T20:25:44.841Z,1.23
2019-05-26T20:28:49.857Z,1.10
2019-05-26T20:31:54.392Z,1.30
2019-05-26T20:35:00.280Z,1.27
2019-05-26T20:38:05.306Z,1.27
2019-05-26T20:41:10.034Z,1.77
2019-05-26T20:44:14.824Z,1.13
2019-05-26T20:47:21.316Z,1.53
2019-05-26T20:50:29.494Z,1.63
2019-05-26T20:53:32.586Z,1.30
2019-05-26T20:56:39.377Z,1.63
2019-05-26T20:59:44.106Z,1.20
2019-05-26T21:02:49.008Z,1.33
2019-05-26T21:05:53.962Z,1.30
2019-05-26T21:09:01.578Z,1.23
2019-05-26T21:12:06.381Z,1.30
2019-05-26T21:15:11.388Z,1.27
2019-05-26T21:18:16.302Z,1.30
2019-05-26T21:21:20.916Z,1.37
2019-05-26T21:24:25.479Z,1.50
2019-05-26T21:27:30.310Z,1.20
2019-05-26T21:30:35.172Z,1.40
2019-05-26T21:33:39.857Z,1.40
2019-05-26T21:36:44.382Z,1.33
2019-05-26T21:39:48.941Z,1.40
2019-05-26T21:42:53.827Z,1.27
2019-05-26T21:45:59.574Z,1.30
2019-05-26T21:49:04.209Z,1.30
2019-05-26T21:52:08.842Z,1.83
2019-05-26T21:55:13.814Z,1.50
2019-05-26T21:58:18.448Z,1.40
2019-05-26T22:01:23.053Z,1.57
2019-05-26T22:04:27.614Z,1.93
2019-05-26T22:07:32.202Z,1.30
2019-05-26T22:10:36.761Z,1.80
2019-05-26T22:13:41.285Z,1.50
2019-05-26T22:16:45.884Z,1.50
2019-05-26T22:20:09.751Z,1.37
2019-05-26T22:23:14.255Z,1.53
2019-05-26T22:26:18.884Z,1.93
2019-05-26T22:29:23.432Z,2.03
2019-05-26T22:32:28.007Z,1.60
2019-05-26T22:35:32.636Z,1.97
2019-05-26T22:38:37.206Z,1.93
2019-05-26T22:41:41.794Z,2.07
2019-05-26T22:44:46.468Z,2.00
2019-05-26T22:47:51.003Z,1.97
2019-05-26T22:50:55.604Z,1.83
2019-05-26T22:54:00.169Z,1.70
2019-05-26T22:57:04.849Z,2.17
2019-05-26T23:00:11.486Z,1.73
2019-05-26T23:03:16.069Z,2.13
2019-05-26T23:06:20.643Z,2.20
2019-05-26T23:09:25.320Z,1.63
2019-05-26T23:12:29.842Z,2.00
2019-05-26T23:15:34.447Z,1.77
2019-05-26T23:18:39.018Z,2.07
2019-05-26T23:21:43.602Z,2.33
2019-05-26T23:24:48.057Z,2.20
2019-05-26T23:27:52.616Z,2.60
2019-05-26T23:30:57.147Z,1.80
2019-05-26T23:34:01.983Z,2.80
2019-05-26T23:37:06.523Z,1.80
2019-05-26T23:40:11.108Z,2.20
2019-05-26T23:43:15.666Z,1.80
2019-05-26T23:46:20.298Z,2.30
2019-05-26T23:49:24.837Z,1.77
2019-05-26T23:52:29.414Z,2.27
2019-05-26T23:55:34.063Z,1.70
2019-05-26T23:58:38.650Z,1.77
